Time;durP1;ratioP1;P1;durP2;ratioP2;P2;SDS_P1;SDS_P2;PMS_P1;PMS_P2;Temp;Humidity;BMP_temperature;BMP_pressure;BME280_temperature;BME280_humidity;BME280_pressure;Samples;Min_cycle;Max_cycle;Signal;HPM_P1;HPM_P2
2022/08/05 00:01:01;;;;;;;2.90;2.70;;;22.90;99.90;;;;;;5053138;28;21011;-67
2022/08/05 00:03:28;;;;;;;3.17;2.90;;;22.90;99.90;;;;;;5052666;28;21339;-67
2022/08/05 00:05:54;;;;;;;3.70;3.40;;;22.90;99.90;;;;;;5053333;28;20483;-66
2022/08/05 00:08:22;;;;;;;3.17;2.97;;;22.80;99.90;;;;;;5053254;28;20517;-67
2022/08/05 00:10:49;;;;;;;3.37;3.07;;;22.90;99.90;;;;;;5052968;28;20976;-67
2022/08/05 00:13:16;;;;;;;2.97;2.77;;;22.80;99.90;;;;;;5053070;28;20477;-67
2022/08/05 00:15:42;;;;;;;3.40;3.10;;;22.80;99.90;;;;;;5052513;28;20459;-68
2022/08/05 00:18:09;;;;;;;3.43;3.00;;;22.70;99.90;;;;;;5052931;28;20474;-67
2022/08/05 00:20:36;;;;;;;3.77;3.47;;;22.70;99.90;;;;;;5053125;28;20488;-69
2022/08/05 00:23:03;;;;;;;3.20;3.00;;;22.70;99.90;;;;;;5052797;28;20461;-67
2022/08/05 00:25:31;;;;;;;3.30;3.00;;;22.70;99.90;;;;;;5052465;28;20523;-67
2022/08/05 00:27:58;;;;;;;3.30;2.97;;;22.60;99.90;;;;;;5052426;28;20531;-68
2022/08/05 00:30:25;;;;;;;3.17;2.90;;;22.60;99.90;;;;;;5052923;28;20956;-69
2022/08/05 00:32:52;;;;;;;3.00;2.80;;;22.60;99.90;;;;;;5052727;28;20488;-70
2022/08/05 00:35:18;;;;;;;3.40;3.10;;;22.50;99.90;;;;;;5052257;28;20472;-70
2022/08/05 00:37:45;;;;;;;3.80;3.33;;;22.50;99.90;;;;;;5052837;28;20486;-67
2022/08/05 00:40:12;;;;;;;3.37;3.13;;;22.50;99.90;;;;;;5052015;28;20521;-70
2022/08/05 00:42:40;;;;;;;2.60;2.40;;;22.50;99.90;;;;;;5052847;28;20464;-69
2022/08/05 00:45:09;;;;;;;3.27;3.00;;;22.50;99.90;;;;;;5051360;28;20473;-69
2022/08/05 00:47:36;;;;;;;3.40;3.10;;;22.40;99.90;;;;;;5052730;28;20895;-67
2022/08/05 00:50:03;;;;;;;3.50;3.20;;;22.40;99.90;;;;;;5052033;28;20473;-68
2022/08/05 00:52:29;;;;;;;3.40;3.10;;;22.40;99.90;;;;;;5052606;28;20466;-68
2022/08/05 00:54:56;;;;;;;3.80;3.50;;;22.40;99.90;;;;;;5051882;28;20834;-67
2022/08/05 00:57:23;;;;;;;3.57;3.27;;;22.40;99.90;;;;;;5051928;28;20491;-68
2022/08/05 00:59:51;;;;;;;3.83;3.43;;;22.30;99.90;;;;;;5052373;28;20513;-67
2022/08/05 01:02:17;;;;;;;2.70;2.50;;;22.30;99.90;;;;;;5051903;28;20461;-68
2022/08/05 01:04:44;;;;;;;3.10;2.90;;;22.20;99.90;;;;;;5051867;28;20486;-68
2022/08/05 01:07:11;;;;;;;2.50;2.30;;;22.30;99.90;;;;;;5052015;28;20493;-67
2022/08/05 01:09:37;;;;;;;2.53;2.33;;;22.40;99.90;;;;;;5051810;28;20461;-67
2022/08/05 01:12:09;;;;;;;2.90;2.70;;;22.50;99.20;;;;;;5051932;28;20471;-68
2022/08/05 01:14:43;;;;;;;3.00;2.70;;;22.70;98.50;;;;;;5051185;28;20466;-66
2022/08/05 01:17:20;;;;;;;3.47;2.63;;;22.90;98.60;;;;;;5051864;28;20871;-68
2022/08/05 01:19:51;;;;;;;2.90;2.60;;;23.00;98.30;;;;;;5051679;28;20826;-67
2022/08/05 01:22:29;;;;;;;2.80;2.60;;;23.10;98.40;;;;;;5051877;28;20464;-67
2022/08/05 01:25:12;;;;;;;2.50;2.30;;;23.20;98.60;;;;;;5051085;28;20466;-66
2022/08/05 01:28:09;;;;;;;2.57;2.37;;;23.30;98.80;;;;;;5051879;28;20482;-67
2022/08/05 01:30:39;;;;;;;2.57;2.37;;;23.30;99.10;;;;;;5051645;28;20454;-67
2022/08/05 01:33:09;;;;;;;2.30;2.10;;;23.40;99.40;;;;;;5051235;28;20451;-68
2022/08/05 01:35:40;;;;;;;3.27;2.97;;;23.40;99.50;;;;;;5051491;28;20466;-68
2022/08/05 01:38:08;;;;;;;3.07;2.87;;;23.50;99.70;;;;;;5050497;28;20464;-69
2022/08/05 01:40:35;;;;;;;2.63;2.40;;;23.50;99.80;;;;;;5051624;28;20530;-68
2022/08/05 01:43:04;;;;;;;2.33;2.13;;;23.60;99.80;;;;;;5051116;28;21009;-68
2022/08/05 01:45:31;;;;;;;3.30;2.70;;;23.60;99.90;;;;;;5050936;28;20519;-68
2022/08/05 01:48:01;;;;;;;2.53;2.33;;;23.60;99.90;;;;;;5051475;28;20466;-66
2022/08/05 01:50:30;;;;;;;2.83;2.20;;;23.70;99.90;;;;;;5051303;28;20460;-67
2022/08/05 01:53:01;;;;;;;3.20;2.60;;;23.70;99.90;;;;;;5051342;28;20510;-67
2022/08/05 01:55:30;;;;;;;5.10;2.67;;;23.60;99.90;;;;;;5050563;28;20464;-68
2022/08/05 01:57:58;;;;;;;2.50;2.30;;;23.70;99.90;;;;;;5051186;28;20474;-68
2022/08/05 02:00:27;;;;;;;3.13;2.73;;;23.70;99.90;;;;;;5050850;28;20495;-66
2022/08/05 02:02:56;;;;;;;2.60;2.40;;;23.70;99.90;;;;;;5051219;28;20911;-67
2022/08/05 02:05:27;;;;;;;4.47;2.40;;;23.70;99.90;;;;;;5050698;28;20464;-68
2022/08/05 02:07:54;;;;;;;2.87;2.40;;;23.70;99.90;;;;;;5050675;28;20466;-68
2022/08/05 02:10:21;;;;;;;2.73;2.30;;;23.70;99.90;;;;;;5051051;28;21050;-68
2022/08/05 02:12:55;;;;;;;2.67;2.33;;;23.70;99.90;;;;;;5050782;28;20951;-68
2022/08/05 02:15:26;;;;;;;2.70;2.50;;;23.60;99.90;;;;;;5050563;28;20475;-68
2022/08/05 02:17:58;;;;;;;2.60;2.40;;;23.60;99.90;;;;;;5050743;28;21038;-68
2022/08/05 02:20:30;;;;;;;3.40;2.30;;;23.60;99.90;;;;;;5050781;28;20490;-67
2022/08/05 02:23:00;;;;;;;3.33;2.57;;;23.60;99.90;;;;;;5050888;28;20463;-67
2022/08/05 02:25:31;;;;;;;3.10;2.50;;;23.70;99.90;;;;;;5050020;28;20819;-68
2022/08/05 02:27:58;;;;;;;2.50;2.20;;;23.60;99.90;;;;;;5050504;28;20964;-68
2022/08/05 02:30:32;;;;;;;2.40;2.20;;;23.60;99.90;;;;;;5050453;28;20464;-67
2022/08/05 02:33:02;;;;;;;3.10;2.47;;;23.60;99.90;;;;;;5050411;28;20492;-66
2022/08/05 02:35:31;;;;;;;3.23;2.73;;;23.60;99.90;;;;;;5049852;28;20470;-68
2022/08/05 02:37:59;;;;;;;2.67;2.03;;;23.60;99.90;;;;;;5050488;28;20469;-67
2022/08/05 02:40:27;;;;;;;2.30;2.10;;;23.50;99.90;;;;;;5050516;28;20541;-67
2022/08/05 02:42:55;;;;;;;6.00;2.40;;;23.50;99.90;;;;;;5049973;28;20462;-66
2022/08/05 02:45:23;;;;;;;3.37;2.40;;;23.50;99.90;;;;;;5050047;28;20464;-66
2022/08/05 02:47:53;;;;;;;6.80;2.80;;;23.40;99.90;;;;;;5050175;28;21027;-67
2022/08/05 02:50:22;;;;;;;3.63;2.50;;;23.50;99.90;;;;;;5050300;28;20839;-66
2022/08/05 02:52:50;;;;;;;2.63;2.20;;;23.50;99.90;;;;;;5050584;28;20882;-67
2022/08/05 02:55:17;;;;;;;5.73;2.60;;;23.50;99.90;;;;;;5049473;28;20475;-67
2022/08/05 02:57:45;;;;;;;3.20;2.80;;;23.50;99.90;;;;;;5050190;28;20559;-68
2022/08/05 03:00:13;;;;;;;3.23;2.77;;;23.50;99.90;;;;;;5049589;28;20466;-67
2022/08/05 03:02:42;;;;;;;3.13;2.83;;;23.50;99.90;;;;;;5050498;28;20461;-67
2022/08/05 03:05:12;;;;;;;3.00;2.80;;;23.40;99.90;;;;;;5048987;28;21203;-67
2022/08/05 03:07:40;;;;;;;3.13;2.70;;;23.40;99.90;;;;;;5050307;28;20534;-67
2022/08/05 03:10:09;;;;;;;3.37;2.87;;;23.30;99.90;;;;;;5049881;28;20556;-67
2022/08/05 03:12:37;;;;;;;3.07;2.77;;;23.30;99.90;;;;;;5049752;28;20466;-67
2022/08/05 03:15:06;;;;;;;3.00;2.67;;;23.20;99.90;;;;;;5049404;28;20471;-67
2022/08/05 03:17:32;;;;;;;2.50;2.30;;;23.10;99.90;;;;;;5049736;28;20487;-67
2022/08/05 03:19:59;;;;;;;4.33;2.77;;;23.10;99.90;;;;;;5049871;28;20511;-67
2022/08/05 03:22:27;;;;;;;3.10;2.80;;;23.00;99.90;;;;;;5049736;28;20483;-66
2022/08/05 03:24:55;;;;;;;2.60;2.40;;;22.90;99.90;;;;;;5049442;28;20468;-67
2022/08/05 03:27:22;;;;;;;3.40;3.10;;;22.90;99.90;;;;;;5049873;28;21066;-68
2022/08/05 03:29:49;;;;;;;3.17;2.87;;;22.80;99.90;;;;;;5049660;28;20466;-67
2022/08/05 03:32:18;;;;;;;3.73;2.70;;;22.80;99.90;;;;;;5049709;28;20464;-68
2022/08/05 03:34:45;;;;;;;2.60;2.40;;;22.70;99.90;;;;;;5049203;28;20873;-67
2022/08/05 03:37:12;;;;;;;4.80;2.80;;;22.70;99.90;;;;;;5049888;28;20884;-68
2022/08/05 03:39:52;;;;;;;2.77;2.30;;;22.60;99.90;;;;;;5049875;28;20473;-68
2022/08/05 03:42:18;;;;;;;2.87;2.67;;;22.60;99.90;;;;;;5049589;28;20495;-67
2022/08/05 03:44:45;;;;;;;3.43;2.47;;;22.50;99.90;;;;;;5049385;28;20461;-68
2022/08/05 03:47:12;;;;;;;5.50;2.60;;;22.50;99.90;;;;;;5049223;28;20478;-67
2022/08/05 03:49:38;;;;;;;5.63;2.90;;;22.40;99.90;;;;;;5049816;28;20461;-67
2022/08/05 03:52:11;;;;;;;3.30;3.00;;;22.40;99.90;;;;;;5049065;28;20455;-68
2022/08/05 03:54:45;;;;;;;4.63;2.97;;;22.30;99.90;;;;;;5049173;28;20558;-67
2022/08/05 03:57:14;;;;;;;3.00;2.70;;;22.30;99.90;;;;;;5049589;28;20492;-68
2022/08/05 03:59:43;;;;;;;2.73;2.53;;;22.30;99.90;;;;;;5049431;28;20463;-67
2022/08/05 04:02:12;;;;;;;3.03;2.50;;;22.20;99.90;;;;;;5052109;28;20487;-67
2022/08/05 04:04:40;;;;;;;4.77;3.00;;;22.20;99.90;;;;;;5052312;28;20511;-66
2022/08/05 04:07:08;;;;;;;3.50;2.50;;;22.10;99.90;;;;;;5053050;28;20481;-67
2022/08/05 04:09:35;;;;;;;2.83;2.63;;;22.00;99.90;;;;;;5052960;28;20456;-68
2022/08/05 04:12:04;;;;;;;4.00;3.00;;;21.90;99.90;;;;;;5053197;28;20938;-66
2022/08/05 04:14:31;;;;;;;4.20;3.10;;;21.90;99.90;;;;;;5052821;28;20823;-67
2022/08/05 04:16:59;;;;;;;3.27;2.97;;;21.80;99.90;;;;;;5052798;28;20529;-67
2022/08/05 04:19:27;;;;;;;3.10;2.80;;;21.80;99.90;;;;;;5053287;28;20496;-67
2022/08/05 04:21:53;;;;;;;3.50;3.20;;;21.80;99.90;;;;;;5053029;28;20485;-67
2022/08/05 04:24:20;;;;;;;3.83;2.70;;;21.80;99.90;;;;;;5052660;28;20993;-66
2022/08/05 04:26:47;;;;;;;3.13;2.90;;;21.80;99.90;;;;;;5053241;28;20899;-66
2022/08/05 04:29:15;;;;;;;3.77;2.80;;;21.80;99.90;;;;;;5041781;28;20939;-67
2022/08/05 04:31:41;;;;;;;4.87;3.23;;;21.80;99.90;;;;;;5055971;23;20492;-71
2022/08/05 04:34:08;;;;;;;4.00;3.00;;;21.80;99.90;;;;;;5039803;28;20506;-71
2022/08/05 04:36:35;;;;;;;3.37;3.03;;;21.90;99.90;;;;;;5042679;28;20562;-72
2022/08/05 04:39:01;;;;;;;4.90;3.27;;;21.90;99.90;;;;;;5042165;28;20489;-71
2022/08/05 04:41:28;;;;;;;2.63;2.43;;;21.90;99.90;;;;;;5041060;28;20852;-71
2022/08/05 04:43:55;;;;;;;3.67;2.80;;;21.90;99.90;;;;;;5042356;28;20460;-71
2022/08/05 04:46:23;;;;;;;3.10;2.73;;;22.00;99.90;;;;;;5042107;28;20485;-71
2022/08/05 04:48:50;;;;;;;3.30;2.83;;;22.00;99.90;;;;;;5040703;28;20468;-71
2022/08/05 04:51:16;;;;;;;4.37;2.80;;;22.00;99.90;;;;;;5042162;28;20810;-72
2022/08/05 04:53:43;;;;;;;3.50;2.93;;;22.00;99.90;;;;;;5040252;28;20497;-71
2022/08/05 04:56:10;;;;;;;2.93;2.73;;;22.00;99.90;;;;;;5041236;28;20484;-71
2022/08/05 04:58:36;;;;;;;3.33;3.00;;;22.00;99.90;;;;;;5042661;28;20464;-72
2022/08/05 05:01:03;;;;;;;3.00;2.80;;;22.00;99.90;;;;;;5038397;28;20840;-72
2022/08/05 05:03:31;;;;;;;3.13;2.83;;;22.00;99.90;;;;;;5040421;28;20464;-72
2022/08/05 05:05:58;;;;;;;3.13;2.60;;;21.90;99.90;;;;;;5051607;28;20486;-71
2022/08/05 05:08:25;;;;;;;3.80;3.47;;;21.90;99.90;;;;;;5051559;28;20460;-70
2022/08/05 05:10:51;;;;;;;3.20;2.80;;;21.90;99.90;;;;;;5051751;28;20472;-71
2022/08/05 05:13:19;;;;;;;3.40;2.97;;;22.00;99.90;;;;;;5047843;28;20535;-71
2022/08/05 05:15:46;;;;;;;3.30;2.80;;;22.00;99.90;;;;;;5048131;28;20468;-71
2022/08/05 05:18:14;;;;;;;3.73;3.07;;;22.00;99.90;;;;;;5049742;28;20462;-71
2022/08/05 05:20:43;;;;;;;3.40;3.10;;;22.10;99.90;;;;;;5049757;28;20501;-71
2022/08/05 05:23:09;;;;;;;3.40;2.90;;;22.20;99.90;;;;;;5049936;28;20510;-71
2022/08/05 05:25:36;;;;;;;3.70;3.00;;;22.30;99.90;;;;;;5036397;28;20531;-71
2022/08/05 05:28:03;;;;;;;5.40;3.17;;;22.30;99.90;;;;;;5028491;28;20469;-71
2022/08/05 05:30:30;;;;;;;3.40;3.10;;;22.40;99.90;;;;;;5031192;28;20462;-71
2022/08/05 05:32:57;;;;;;;2.70;2.50;;;22.50;99.90;;;;;;5030379;28;20469;-71
2022/08/05 05:35:23;;;;;;;3.27;2.87;;;22.50;99.90;;;;;;5031035;28;20846;-71
2022/08/05 05:37:53;;;;;;;3.47;2.80;;;22.60;99.90;;;;;;5030662;28;20468;-70
2022/08/05 05:40:22;;;;;;;3.40;3.10;;;22.60;99.90;;;;;;5031040;28;20219;-70
2022/08/05 05:42:49;;;;;;;3.57;3.27;;;22.70;99.90;;;;;;5030453;28;21000;-70
2022/08/05 05:45:17;;;;;;;8.40;3.10;;;22.70;99.90;;;;;;5030627;28;20474;-70
2022/08/05 05:47:44;;;;;;;3.80;3.50;;;22.70;99.90;;;;;;5030609;28;20856;-70
2022/08/05 05:50:13;;;;;;;5.97;3.80;;;22.80;99.90;;;;;;5030695;28;20468;-71
2022/08/05 05:52:40;;;;;;;4.13;3.27;;;22.90;99.90;;;;;;5031049;28;20947;-72
2022/08/05 05:55:11;;;;;;;4.43;3.47;;;22.90;99.90;;;;;;5029646;28;20466;-70
2022/08/05 05:57:39;;;;;;;5.27;3.10;;;23.00;99.90;;;;;;5030986;28;20825;-71
2022/08/05 06:00:08;;;;;;;4.40;3.37;;;23.00;99.90;;;;;;5030891;28;20469;-71
2022/08/05 06:02:35;;;;;;;3.50;3.20;;;23.10;99.90;;;;;;5029829;28;20964;-71
2022/08/05 06:05:02;;;;;;;3.50;3.20;;;23.20;99.90;;;;;;5030748;28;20472;-71
2022/08/05 06:07:28;;;;;;;3.97;3.63;;;23.20;99.90;;;;;;5029791;28;20519;-71
2022/08/05 06:09:55;;;;;;;3.77;3.43;;;23.30;99.90;;;;;;5030189;28;20473;-70
2022/08/05 06:12:23;;;;;;;5.07;2.90;;;23.30;99.90;;;;;;5030818;28;20929;-70
2022/08/05 06:14:50;;;;;;;4.90;3.00;;;23.40;99.90;;;;;;5027101;28;20914;-71
2022/08/05 06:17:17;;;;;;;3.90;3.30;;;23.40;99.90;;;;;;5029708;28;20484;-71
2022/08/05 06:19:44;;;;;;;4.10;3.20;;;23.40;99.90;;;;;;5028888;28;20864;-70
2022/08/05 06:22:11;;;;;;;3.90;3.60;;;23.40;99.90;;;;;;5029904;28;20526;-71
2022/08/05 06:24:42;;;;;;;4.17;3.23;;;23.50;99.90;;;;;;5029030;28;20471;-71
2022/08/05 06:27:09;;;;;;;3.40;3.10;;;23.50;99.90;;;;;;5030076;28;21069;-71
2022/08/05 06:29:37;;;;;;;4.10;3.27;;;23.50;99.90;;;;;;5030086;28;20968;-71
2022/08/05 06:32:04;;;;;;;3.47;3.17;;;23.60;99.90;;;;;;5029257;28;20987;-71
2022/08/05 06:34:31;;;;;;;3.20;3.00;;;23.60;99.90;;;;;;5027346;28;20472;-70
2022/08/05 06:36:58;;;;;;;3.67;3.37;;;23.80;99.90;;;;;;5029133;28;20999;-71
2022/08/05 06:39:25;;;;;;;4.07;3.30;;;23.80;99.90;;;;;;5029459;28;20474;-71
2022/08/05 06:41:51;;;;;;;4.07;3.27;;;23.80;99.90;;;;;;5026729;28;20550;-69
2022/08/05 06:44:18;;;;;;;4.23;3.83;;;23.90;99.90;;;;;;5028797;28;20464;-71
2022/08/05 06:46:46;;;;;;;3.40;3.10;;;24.00;99.90;;;;;;5029479;28;20557;-71
2022/08/05 06:49:13;;;;;;;3.43;2.73;;;24.00;99.90;;;;;;5030006;28;20979;-71
2022/08/05 06:51:40;;;;;;;3.43;3.00;;;24.10;99.90;;;;;;5029631;28;20459;-71
2022/08/05 06:54:06;;;;;;;4.07;3.03;;;24.10;99.90;;;;;;5029792;28;20959;-71
2022/08/05 06:56:33;;;;;;;2.60;2.40;;;24.20;99.90;;;;;;5028566;28;21036;-71
2022/08/05 06:59:00;;;;;;;5.33;2.53;;;24.20;99.90;;;;;;5030623;28;20468;-71
2022/08/05 07:01:27;;;;;;;3.23;2.93;;;24.20;99.90;;;;;;5028115;28;20876;-72
2022/08/05 07:03:55;;;;;;;3.30;2.67;;;24.30;99.90;;;;;;5029807;28;20538;-71
2022/08/05 07:06:22;;;;;;;3.17;2.87;;;24.30;99.90;;;;;;5029985;28;20487;-71
2022/08/05 07:08:50;;;;;;;2.97;2.67;;;24.40;99.90;;;;;;5029248;28;20464;-71
2022/08/05 07:11:17;;;;;;;2.73;2.53;;;24.40;99.90;;;;;;5031092;28;20463;-71
2022/08/05 07:16:49;;;;;;;2.83;2.47;;;24.50;99.90;;;;;;5029716;28;20459;-71
2022/08/05 07:19:18;;;;;;;3.40;2.60;;;24.60;99.90;;;;;;5030995;28;20985;-72
2022/08/05 07:21:46;;;;;;;3.00;2.17;;;24.60;99.90;;;;;;5029117;28;20495;-71
2022/08/05 07:24:12;;;;;;;8.03;2.60;;;24.80;99.90;;;;;;5029699;28;20474;-70
2022/08/05 07:26:40;;;;;;;2.47;2.27;;;24.90;99.90;;;;;;5029573;28;20919;-72
2022/08/05 07:29:07;;;;;;;3.30;1.97;;;24.90;99.90;;;;;;5028485;28;20468;-70
2022/08/05 07:31:34;;;;;;;2.67;2.40;;;25.00;99.90;;;;;;5029203;28;20814;-69
2022/08/05 07:34:01;;;;;;;2.87;2.23;;;25.10;99.90;;;;;;5029058;28;20468;-70
2022/08/05 07:36:32;;;;;;;3.00;1.87;;;25.10;99.90;;;;;;5031235;28;20484;-69
2022/08/05 07:38:59;;;;;;;2.53;2.33;;;25.20;99.90;;;;;;5033165;28;20464;-68
2022/08/05 07:41:25;;;;;;;2.57;2.37;;;25.20;99.90;;;;;;5033941;28;20472;-68
2022/08/05 07:43:53;;;;;;;2.53;2.33;;;25.30;99.90;;;;;;5032670;28;20495;-69
2022/08/05 07:46:20;;;;;;;2.20;2.00;;;25.30;99.90;;;;;;5033011;28;20489;-69
2022/08/05 07:48:46;;;;;;;2.30;2.10;;;25.40;99.90;;;;;;5032790;28;20475;-69
2022/08/05 07:51:14;;;;;;;2.53;2.10;;;25.40;99.90;;;;;;5032582;28;20491;-69
2022/08/05 07:53:42;;;;;;;4.47;2.10;;;25.40;99.90;;;;;;5032562;28;20460;-69
2022/08/05 07:56:09;;;;;;;3.07;2.23;;;25.60;99.90;;;;;;5033128;28;21071;-69
2022/08/05 07:58:36;;;;;;;2.30;1.90;;;25.70;99.30;;;;;;5032702;28;20948;-70
2022/08/05 08:01:03;;;;;;;2.30;2.03;;;25.70;99.60;;;;;;5033288;28;20518;-70
2022/08/05 08:03:30;;;;;;;2.53;2.33;;;25.70;99.70;;;;;;5032600;28;20487;-70
2022/08/05 08:05:56;;;;;;;2.20;2.00;;;25.80;99.00;;;;;;5033404;28;20516;-73
2022/08/05 08:08:24;;;;;;;2.90;2.27;;;25.80;99.30;;;;;;5032759;28;20491;-71
2022/08/05 08:10:54;;;;;;;1.87;1.73;;;25.90;99.40;;;;;;5032413;28;20460;-71
2022/08/05 08:13:21;;;;;;;2.37;2.17;;;25.90;99.80;;;;;;5033182;28;20468;-71
2022/08/05 08:15:48;;;;;;;2.47;2.10;;;26.00;99.90;;;;;;5032511;28;21062;-71
2022/08/05 08:18:15;;;;;;;1.77;1.67;;;26.10;99.90;;;;;;5033435;28;20461;-71
2022/08/05 08:20:42;;;;;;;2.27;1.83;;;26.10;98.10;;;;;;5032407;28;20471;-71
2022/08/05 08:23:09;;;;;;;2.00;1.80;;;26.20;98.00;;;;;;5032248;28;20492;-71
2022/08/05 08:25:36;;;;;;;2.33;1.93;;;26.20;98.20;;;;;;5031855;28;20460;-71
2022/08/05 08:28:04;;;;;;;2.10;1.90;;;26.20;99.30;;;;;;5032933;28;20463;-71
2022/08/05 08:30:31;;;;;;;2.07;1.87;;;26.20;98.00;;;;;;5032614;28;20464;-70
2022/08/05 08:32:58;;;;;;;2.20;2.00;;;26.30;98.40;;;;;;5031660;28;20968;-70
2022/08/05 08:35:24;;;;;;;2.23;2.03;;;26.30;97.70;;;;;;5031753;28;20461;-71
2022/08/05 08:37:51;;;;;;;2.00;1.90;;;26.50;97.60;;;;;;5030946;28;20491;-73
2022/08/05 08:40:18;;;;;;;2.07;1.87;;;26.60;98.20;;;;;;5030517;28;20461;-73
2022/08/05 08:42:50;;;;;;;2.33;2.13;;;26.60;97.50;;;;;;5029148;28;20571;-73
2022/08/05 08:45:20;;;;;;;2.97;2.23;;;26.60;97.80;;;;;;5030979;28;20468;-71
2022/08/05 08:47:49;;;;;;;2.37;2.17;;;26.70;98.10;;;;;;5030626;28;20492;-70
2022/08/05 08:50:18;;;;;;;2.37;1.97;;;26.80;98.90;;;;;;5031706;28;20488;-70
2022/08/05 08:52:50;;;;;;;1.77;1.67;;;26.90;97.40;;;;;;5030460;28;20469;-71
2022/08/05 08:55:18;;;;;;;2.20;2.10;;;27.00;98.30;;;;;;5030816;28;20989;-70
2022/08/05 08:57:46;;;;;;;1.80;1.70;;;27.10;97.90;;;;;;5030839;28;20492;-70
2022/08/05 09:00:13;;;;;;;2.27;2.13;;;27.20;98.10;;;;;;5031689;28;20457;-70
2022/08/05 09:02:42;;;;;;;3.40;2.00;;;27.40;98.60;;;;;;5031840;28;20520;-71
2022/08/05 09:05:11;;;;;;;1.87;1.77;;;27.40;97.30;;;;;;5031332;28;20468;-70
2022/08/05 09:07:38;;;;;;;2.37;2.10;;;27.40;96.30;;;;;;5031526;28;21000;-71
2022/08/05 09:10:06;;;;;;;2.10;1.97;;;27.40;97.50;;;;;;5031880;28;20468;-70
2022/08/05 09:12:33;;;;;;;2.17;1.97;;;27.60;97.20;;;;;;5031221;28;20461;-72
2022/08/05 09:15:02;;;;;;;2.60;2.07;;;27.60;96.70;;;;;;5031203;28;20461;-71
2022/08/05 09:17:29;;;;;;;2.00;1.90;;;27.60;95.40;;;;;;5031392;28;20483;-72
2022/08/05 09:19:58;;;;;;;2.40;2.20;;;27.50;96.00;;;;;;5031307;28;20453;-72
2022/08/05 09:22:24;;;;;;;1.63;1.53;;;27.50;94.60;;;;;;5031216;28;20496;-72
2022/08/05 09:24:58;;;;;;;2.20;2.00;;;27.70;96.90;;;;;;5030567;28;20460;-72
2022/08/05 09:27:33;;;;;;;2.20;2.00;;;27.80;96.50;;;;;;5029062;28;21070;-70
2022/08/05 09:30:00;;;;;;;2.30;2.10;;;28.00;95.80;;;;;;5030697;28;20465;-70
2022/08/05 09:32:36;;;;;;;2.10;1.90;;;28.10;96.20;;;;;;5031240;28;20471;-70
2022/08/05 09:35:11;;;;;;;2.37;1.70;;;28.30;96.20;;;;;;5030504;28;20583;-72
2022/08/05 09:37:39;;;;;;;1.97;1.77;;;28.40;96.00;;;;;;5030431;28;20485;-70
2022/08/05 09:40:07;;;;;;;2.13;1.80;;;28.60;95.60;;;;;;5031626;28;20461;-70
2022/08/05 09:42:40;;;;;;;2.50;2.30;;;28.70;96.00;;;;;;5030727;28;20480;-70
2022/08/05 09:45:08;;;;;;;3.30;1.93;;;28.80;95.10;;;;;;5030609;28;20515;-73
2022/08/05 09:47:40;;;;;;;2.03;1.73;;;28.90;94.90;;;;;;5030282;28;20516;-70
2022/08/05 09:50:08;;;;;;;2.00;1.83;;;29.00;94.00;;;;;;5030895;28;20468;-69
2022/08/05 09:52:36;;;;;;;2.00;1.80;;;29.00;94.10;;;;;;5030563;28;20457;-72
2022/08/05 09:55:05;;;;;;;1.90;1.80;;;29.10;94.40;;;;;;5030187;28;20948;-70
2022/08/05 09:57:35;;;;;;;1.87;1.77;;;29.20;95.10;;;;;;5030424;28;20488;-70
2022/08/05 10:00:10;;;;;;;4.43;3.30;;;29.40;94.70;;;;;;5029850;28;20835;-70
2022/08/05 10:02:39;;;;;;;1.70;1.60;;;29.50;94.50;;;;;;5028566;28;20489;-70
2022/08/05 10:05:10;;;;;;;2.10;1.97;;;29.70;94.50;;;;;;5029841;28;20467;-70
2022/08/05 10:07:48;;;;;;;3.03;2.70;;;29.80;94.00;;;;;;5029219;28;20573;-70
2022/08/05 10:10:16;;;;;;;2.30;2.10;;;30.00;93.70;;;;;;5030873;28;20464;-70
2022/08/05 10:12:44;;;;;;;2.23;1.90;;;30.10;94.20;;;;;;5029737;28;20946;-70
2022/08/05 10:15:16;;;;;;;2.77;2.10;;;30.10;93.50;;;;;;5029283;28;20471;-70
2022/08/05 10:17:43;;;;;;;2.33;2.00;;;30.30;93.40;;;;;;5029752;28;20488;-70
2022/08/05 10:20:13;;;;;;;2.13;1.93;;;30.40;93.80;;;;;;5030271;28;20497;-70
2022/08/05 10:22:40;;;;;;;2.10;2.00;;;30.50;94.30;;;;;;5029399;28;20472;-70
2022/08/05 10:25:08;;;;;;;2.33;2.13;;;30.70;92.80;;;;;;5029591;28;20499;-70
2022/08/05 10:27:35;;;;;;;3.03;2.10;;;30.70;92.40;;;;;;5029360;28;20487;-69
2022/08/05 10:30:03;;;;;;;2.13;1.93;;;30.70;93.00;;;;;;5029867;28;20544;-69
2022/08/05 10:32:32;;;;;;;2.30;2.10;;;30.70;92.30;;;;;;5030462;28;21088;-72
2022/08/05 10:34:59;;;;;;;2.40;2.20;;;30.70;92.40;;;;;;5029597;28;20530;-69
2022/08/05 10:37:29;;;;;;;1.97;1.77;;;30.80;91.70;;;;;;5029833;28;20534;-69
2022/08/05 10:39:58;;;;;;;2.90;2.33;;;30.90;92.20;;;;;;5028973;28;20461;-70
2022/08/05 10:42:27;;;;;;;2.47;2.27;;;30.80;91.90;;;;;;5030249;28;20519;-70
2022/08/05 10:44:56;;;;;;;2.70;2.33;;;30.90;91.70;;;;;;5028812;28;20812;-70
2022/08/05 10:47:31;;;;;;;2.13;1.93;;;30.90;92.10;;;;;;5029737;28;20481;-69
2022/08/05 10:50:05;;;;;;;2.40;1.97;;;31.10;92.60;;;;;;5029125;28;20885;-70
2022/08/05 10:52:42;;;;;;;2.43;2.23;;;31.00;92.20;;;;;;5029244;28;20507;-69
2022/08/05 10:55:12;;;;;;;2.43;2.23;;;31.10;91.70;;;;;;5029321;28;20452;-70
2022/08/05 10:57:40;;;;;;;1.87;1.77;;;31.20;91.80;;;;;;5029303;28;20481;-70
2022/08/05 11:00:09;;;;;;;2.37;2.17;;;31.30;92.10;;;;;;5028908;28;20461;-70
2022/08/05 11:02:36;;;;;;;2.67;2.20;;;31.30;90.70;;;;;;5029460;28;20457;-71
2022/08/05 11:05:05;;;;;;;2.33;2.10;;;31.30;91.40;;;;;;5028899;28;20846;-71
2022/08/05 11:07:33;;;;;;;1.93;1.83;;;31.30;91.40;;;;;;5029193;28;20481;-71
2022/08/05 11:10:03;;;;;;;2.40;2.20;;;31.50;92.00;;;;;;5029616;28;20515;-71
2022/08/05 11:12:45;;;;;;;2.40;2.20;;;31.60;91.40;;;;;;5032347;28;20465;-72
2022/08/05 11:15:21;;;;;;;2.67;2.47;;;31.70;91.30;;;;;;5031234;28;20814;-72
2022/08/05 11:17:49;;;;;;;2.10;1.90;;;31.80;92.00;;;;;;5033384;28;20511;-72
2022/08/05 11:20:40;;;;;;;2.13;1.93;;;31.90;91.90;;;;;;5033011;28;20515;-69
2022/08/05 11:23:33;;;;;;;2.00;1.90;;;32.00;90.50;;;;;;5033508;28;20484;-70
2022/08/05 11:26:03;;;;;;;2.90;2.60;;;31.90;89.30;;;;;;5033069;28;20500;-69
2022/08/05 11:28:46;;;;;;;2.43;2.30;;;31.90;90.30;;;;;;5032997;28;20494;-69
2022/08/05 11:31:29;;;;;;;2.90;2.17;;;31.70;89.70;;;;;;5032680;28;20480;-69
2022/08/05 11:34:01;;;;;;;2.20;2.00;;;31.50;90.90;;;;;;5032898;28;20467;-71
2022/08/05 11:36:49;;;;;;;2.13;2.00;;;31.50;87.70;;;;;;5033623;28;20476;-69
2022/08/05 11:39:37;;;;;;;2.10;2.00;;;31.40;88.40;;;;;;5033782;28;20457;-69
2022/08/05 11:42:07;;;;;;;2.47;2.27;;;31.40;91.30;;;;;;5032363;28;20548;-69
2022/08/05 11:44:39;;;;;;;4.17;2.20;;;31.60;91.20;;;;;;5031614;28;20550;-69
2022/08/05 11:47:06;;;;;;;2.50;2.30;;;31.80;91.10;;;;;;5033525;28;20568;-69
2022/08/05 11:49:33;;;;;;;2.50;2.20;;;31.80;90.90;;;;;;5031966;28;20548;-69
2022/08/05 11:51:59;;;;;;;2.27;2.07;;;31.70;86.90;;;;;;5033094;28;20511;-69
2022/08/05 11:54:27;;;;;;;2.73;2.03;;;31.60;89.50;;;;;;5032852;28;20467;-69
2022/08/05 11:56:56;;;;;;;2.20;2.00;;;31.60;91.80;;;;;;5032742;28;20508;-69
2022/08/05 11:59:26;;;;;;;2.80;2.10;;;31.70;87.90;;;;;;5033139;28;20463;-69
2022/08/05 12:01:58;;;;;;;3.10;2.20;;;31.70;90.90;;;;;;5031993;28;20464;-69
2022/08/05 12:04:26;;;;;;;3.13;2.27;;;31.80;91.00;;;;;;5032074;28;20495;-68
2022/08/05 12:06:53;;;;;;;2.33;2.10;;;31.90;90.80;;;;;;5032775;28;20491;-69
2022/08/05 12:09:24;;;;;;;2.30;2.10;;;32.00;89.10;;;;;;5032610;28;20468;-69
2022/08/05 12:11:51;;;;;;;2.23;2.03;;;31.80;90.70;;;;;;5032189;28;20580;-70
2022/08/05 12:14:18;;;;;;;2.40;2.20;;;31.90;91.00;;;;;;5031789;28;20495;-70
2022/08/05 12:16:47;;;;;;;3.93;2.30;;;32.00;90.50;;;;;;5032441;28;20480;-69
2022/08/05 12:19:15;;;;;;;2.50;2.30;;;32.10;90.10;;;;;;5032524;28;21172;-69
2022/08/05 12:21:46;;;;;;;2.53;2.20;;;32.30;90.30;;;;;;5029091;28;20500;-70
2022/08/05 12:24:16;;;;;;;2.37;2.20;;;32.50;87.90;;;;;;5032082;28;20480;-70
2022/08/05 12:26:44;;;;;;;2.90;2.70;;;32.50;90.00;;;;;;5030781;28;20487;-69
2022/08/05 12:29:12;;;;;;;3.33;1.90;;;32.50;91.50;;;;;;5032354;28;20845;-69
2022/08/05 12:31:41;;;;;;;1.97;1.87;;;32.60;89.80;;;;;;5031567;28;20469;-69
2022/08/05 12:34:09;;;;;;;2.00;1.90;;;32.60;90.70;;;;;;5031258;28;20461;-70
2022/08/05 12:36:36;;;;;;;2.33;2.13;;;32.80;85.80;;;;;;5032108;28;20535;-69
2022/08/05 12:39:05;;;;;;;2.17;2.07;;;32.80;86.10;;;;;;5031113;28;20489;-69
2022/08/05 12:41:34;;;;;;;2.50;2.30;;;32.90;88.00;;;;;;5031399;28;20464;-68
2022/08/05 12:44:02;;;;;;;2.50;2.30;;;33.00;89.20;;;;;;5031710;28;21034;-70
2022/08/05 12:46:31;;;;;;;2.43;2.00;;;33.00;87.30;;;;;;5031831;28;20481;-70
2022/08/05 12:48:59;;;;;;;2.27;2.07;;;33.10;89.00;;;;;;5031922;28;20465;-70
2022/08/05 12:51:30;;;;;;;2.37;2.17;;;32.90;82.50;;;;;;5031036;28;20469;-68
2022/08/05 12:54:01;;;;;;;2.43;2.23;;;32.50;83.30;;;;;;5031460;28;20458;-69
2022/08/05 12:56:29;;;;;;;2.83;2.60;;;32.10;84.00;;;;;;5031660;28;21012;-70
2022/08/05 12:59:13;;;;;;;2.40;2.20;;;31.90;84.20;;;;;;5030867;28;20461;-70